Time;durP1;ratioP1;P1;durP2;ratioP2;P2;SDS_P1;SDS_P2;PMS_P1;PMS_P2;Temp;Humidity;BMP_temperature;BMP_pressure;BME280_temperature;BME280_humidity;BME280_pressure;Samples;Min_cycle;Max_cycle;Signal;HPM_P1;HPM_P2
2022/02/17 00:01:25;;;;;;;;;;;0.90;99.90;;;;;;4167339;28;19925;-50
2022/02/17 00:03:28;;;;;;;;;;;0.90;99.90;;;;;;4176856;28;19928;-48
2022/02/17 00:05:30;;;;;;;;;;;0.90;99.90;;;;;;4176389;28;19933;-49
2022/02/17 00:07:32;;;;;;;;;;;1.00;99.90;;;;;;4174456;28;19925;-49
2022/02/17 00:09:34;;;;;;;;;;;1.00;99.90;;;;;;4176378;28;19972;-51
2022/02/17 00:11:41;;;;;;;;;;;0.90;99.90;;;;;;4176894;28;19928;-47
2022/02/17 00:13:43;;;;;;;;;;;0.60;99.90;;;;;;4175385;28;19925;-47
2022/02/17 00:15:46;;;;;;;;;;;0.70;99.90;;;;;;4176077;28;19924;-48
2022/02/17 00:17:48;;;;;;;;;;;0.90;99.90;;;;;;4168695;28;20141;-49
2022/02/17 00:19:50;;;;;;;;;;;1.10;99.90;;;;;;4172574;28;20008;-47
2022/02/17 00:21:52;;;;;;;;;;;1.10;99.90;;;;;;4176617;28;19929;-48
2022/02/17 00:23:54;;;;;;;;;;;1.00;99.90;;;;;;4175169;28;19925;-48
2022/02/17 00:25:56;;;;;;;;;;;1.00;99.90;;;;;;4174662;28;20464;-45
2022/02/17 00:27:58;;;;;;;;;;;1.00;99.90;;;;;;4169652;28;19929;-45
2022/02/17 00:30:00;;;;;;;;;;;0.90;99.90;;;;;;4175440;28;19951;-45
2022/02/17 00:32:02;;;;;;;;;;;0.90;99.90;;;;;;4175237;28;19935;-47
2022/02/17 00:34:04;;;;;;;;;;;0.80;99.90;;;;;;4161135;28;19961;-47
2022/02/17 00:36:06;;;;;;;;;;;0.80;99.90;;;;;;4168131;28;19929;-46
2022/02/17 00:38:08;;;;;;;;;;;0.70;99.90;;;;;;4164931;28;20131;-49
2022/02/17 00:40:10;;;;;;;;;;;0.80;99.90;;;;;;4171680;28;19940;-46
2022/02/17 00:42:12;;;;;;;;;;;0.70;99.90;;;;;;4166905;28;19969;-50
2022/02/17 00:44:14;;;;;;;;;;;0.80;99.90;;;;;;4166092;28;20480;-49
2022/02/17 00:46:16;;;;;;;;;;;0.60;99.90;;;;;;4174692;28;19971;-47
2022/02/17 00:48:17;;;;;;;;;;;0.50;99.90;;;;;;4173575;28;19925;-47
2022/02/17 00:50:19;;;;;;;;;;;0.40;99.90;;;;;;4171054;28;19925;-47
2022/02/17 00:52:21;;;;;;;;;;;0.40;99.90;;;;;;4167053;28;20413;-50
2022/02/17 00:54:24;;;;;;;;;;;0.50;99.90;;;;;;4171116;28;19924;-49
2022/02/17 00:56:25;;;;;;;;;;;0.60;99.90;;;;;;4170447;28;19925;-49
2022/02/17 00:58:28;;;;;;;;;;;0.70;99.90;;;;;;4168078;28;19929;-49
2022/02/17 01:00:30;;;;;;;;;;;0.80;99.90;;;;;;4169645;28;20289;-49
2022/02/17 01:02:32;;;;;;;;;;;0.90;99.90;;;;;;4166528;28;20313;-46
2022/02/17 01:04:34;;;;;;;;;;;0.90;99.90;;;;;;4163168;28;20424;-49
2022/02/17 01:06:39;;;;;;;;;;;0.90;99.90;;;;;;4171796;28;19956;-48
2022/02/17 01:08:41;;;;;;;;;;;0.80;99.90;;;;;;4173224;28;19934;-50
2022/02/17 01:10:43;;;;;;;;;;;0.90;99.90;;;;;;4175480;28;19924;-47
2022/02/17 01:12:45;;;;;;;;;;;0.80;99.90;;;;;;4175380;28;20031;-47
2022/02/17 01:14:46;;;;;;;;;;;0.70;99.90;;;;;;4172707;28;19929;-48
2022/02/17 01:16:48;;;;;;;;;;;0.80;99.90;;;;;;4175496;28;19935;-49
2022/02/17 01:18:50;;;;;;;;;;;0.80;99.90;;;;;;4170123;28;19960;-49
2022/02/17 01:20:52;;;;;;;;;;;0.70;99.90;;;;;;4169707;28;20056;-49
2022/02/17 01:22:54;;;;;;;;;;;0.50;99.90;;;;;;4163642;28;19960;-47
2022/02/17 01:24:56;;;;;;;;;;;0.50;99.90;;;;;;4168231;28;20628;-50
2022/02/17 01:26:58;;;;;;;;;;;0.50;99.90;;;;;;4171644;28;19932;-47
2022/02/17 01:29:00;;;;;;;;;;;0.40;99.90;;;;;;4174667;28;19933;-47
2022/02/17 01:31:02;;;;;;;;;;;0.40;99.90;;;;;;4174573;28;19979;-50
2022/02/17 01:33:04;;;;;;;;;;;0.50;99.90;;;;;;4175750;28;19925;-48
2022/02/17 01:35:08;;;;;;;;;;;0.30;99.90;;;;;;4175802;28;19929;-48
2022/02/17 01:37:10;;;;;;;;;;;0.20;99.90;;;;;;4172882;28;19924;-48
2022/02/17 01:39:12;;;;;;;;;;;0.20;99.90;;;;;;4174830;28;20535;-47
2022/02/17 01:41:14;;;;;;;;;;;0.30;99.90;;;;;;4173505;28;19931;-47
2022/02/17 01:43:16;;;;;;;;;;;0.30;99.90;;;;;;4172933;28;19924;-50
2022/02/17 01:45:18;;;;;;;;;;;0.10;99.90;;;;;;4175195;28;20012;-46
2022/02/17 01:47:20;;;;;;;;;;;0.20;99.90;;;;;;4172428;28;19981;-48
2022/02/17 01:49:22;;;;;;;;;;;0.10;99.90;;;;;;4172985;28;19976;-48
2022/02/17 01:51:24;;;;;;;;;;;0.10;99.90;;;;;;4177919;28;19975;-50
2022/02/17 01:53:26;;;;;;;;;;;0.10;99.90;;;;;;4177699;28;20015;-49
2022/02/17 01:55:28;;;;;;;;;;;0.10;99.90;;;;;;4175557;28;20031;-50
2022/02/17 01:57:30;;;;;;;;;;;0.20;99.90;;;;;;4175312;28;20015;-49
2022/02/17 01:59:32;;;;;;;;;;;0.10;99.90;;;;;;4175996;28;19929;-49
2022/02/17 02:01:35;;;;;;;;;;;0.10;99.90;;;;;;4177179;28;19925;-50
2022/02/17 02:03:36;;;;;;;;;;;0.00;99.90;;;;;;4179739;28;20019;-51
2022/02/17 02:05:38;;;;;;;;;;;-0.10;99.90;;;;;;4177434;28;19939;-48
2022/02/17 02:07:41;;;;;;;;;;;-0.10;99.90;;;;;;4176186;28;19933;-50
2022/02/17 02:09:43;;;;;;;;;;;-0.10;99.90;;;;;;4165850;28;20407;-48
2022/02/17 02:11:45;;;;;;;;;;;-0.10;99.90;;;;;;4169361;28;20023;-52
2022/02/17 02:13:47;;;;;;;;;;;-0.10;99.90;;;;;;4164764;28;19929;-48
2022/02/17 02:15:49;;;;;;;;;;;-0.20;99.90;;;;;;4171020;28;19925;-51
2022/02/17 02:17:51;;;;;;;;;;;-0.10;99.90;;;;;;4173039;28;19932;-51
2022/02/17 02:19:59;;;;;;;;;;;-0.10;99.90;;;;;;4177906;28;19929;-51
2022/02/17 02:22:01;;;;;;;;;;;-0.20;99.90;;;;;;4165177;28;19928;-48
2022/02/17 02:24:03;;;;;;;;;;;-0.30;99.90;;;;;;4171351;28;20023;-50
2022/02/17 02:26:05;;;;;;;;;;;-0.40;99.90;;;;;;4177356;28;19974;-51
2022/02/17 02:28:07;;;;;;;;;;;-0.40;99.90;;;;;;4168132;28;19929;-51
2022/02/17 02:30:09;;;;;;;;;;;-0.50;99.90;;;;;;4170516;28;20052;-52
2022/02/17 02:32:11;;;;;;;;;;;-0.60;99.90;;;;;;4169324;28;19971;-51
2022/02/17 02:34:12;;;;;;;;;;;-0.60;99.90;;;;;;4178820;28;20316;-50
2022/02/17 02:36:14;;;;;;;;;;;-0.60;99.90;;;;;;4175831;28;19939;-50
2022/02/17 02:38:30;;;;;;;;;;;-0.60;99.90;;;;;;4164119;28;19925;-51
2022/02/17 02:40:32;;;;;;;;;;;-0.50;99.90;;;;;;4175889;28;19947;-49
2022/02/17 02:42:34;;;;;;;;;;;-0.40;99.90;;;;;;4173441;28;19937;-49
2022/02/17 02:44:36;;;;;;;;;;;-0.30;99.90;;;;;;4163943;28;20039;-49
2022/02/17 02:46:38;;;;;;;;;;;-0.20;99.90;;;;;;4176052;28;20296;-50
2022/02/17 02:48:40;;;;;;;;;;;-0.10;99.90;;;;;;4176290;28;19934;-48
2022/02/17 02:50:42;;;;;;;;;;;0.00;99.90;;;;;;4167360;28;19964;-49
2022/02/17 02:52:44;;;;;;;;;;;0.00;99.90;;;;;;4170941;28;19925;-50
2022/02/17 02:54:46;;;;;;;;;;;0.00;99.90;;;;;;4177025;28;19995;-50
2022/02/17 02:56:47;;;;;;;;;;;-0.10;99.90;;;;;;4169650;28;19964;-51
2022/02/17 02:58:49;;;;;;;;;;;-0.10;99.90;;;;;;4175354;28;20023;-51
2022/02/17 03:00:51;;;;;;;;;;;-0.10;99.90;;;;;;4169616;28;19929;-50
2022/02/17 03:02:53;;;;;;;;;;;-0.10;99.90;;;;;;4170131;28;19929;-51
2022/02/17 03:04:55;;;;;;;;;;;-0.10;99.90;;;;;;4176965;28;19929;-49
2022/02/17 03:06:57;;;;;;;;;;;0.00;99.90;;;;;;4175609;28;20055;-51
2022/02/17 03:08:59;;;;;;;;;;;-0.10;99.90;;;;;;4173050;28;19935;-51
2022/02/17 03:11:01;;;;;;;;;;;-0.30;99.90;;;;;;4175673;28;19971;-51
2022/02/17 03:13:05;;;;;;;;;;;-0.50;99.90;;;;;;4169680;28;19924;-52
2022/02/17 03:15:07;;;;;;;;;;;-0.60;99.90;;;;;;4162443;28;19956;-52
2022/02/17 03:17:09;;;;;;;;;;;-0.70;99.90;;;;;;4175122;28;20011;-51
2022/02/17 03:19:13;;;;;;;;;;;-0.70;99.90;;;;;;4174503;28;19925;-49
2022/02/17 03:21:15;;;;;;;;;;;-0.70;99.90;;;;;;4178637;28;20371;-51
2022/02/17 03:23:17;;;;;;;;;;;-0.50;99.90;;;;;;4173819;28;19935;-49
2022/02/17 03:25:19;;;;;;;;;;;-0.50;99.90;;;;;;4175545;28;19933;-48
2022/02/17 03:27:21;;;;;;;;;;;-0.60;99.90;;;;;;4176614;28;19968;-50
2022/02/17 03:29:23;;;;;;;;;;;-0.60;99.90;;;;;;4171098;28;20495;-51
2022/02/17 03:31:24;;;;;;;;;;;-0.50;99.90;;;;;;4176640;28;19931;-51
2022/02/17 03:33:26;;;;;;;;;;;-0.40;99.90;;;;;;4176264;28;20017;-49
2022/02/17 03:35:28;;;;;;;;;;;-0.30;99.90;;;;;;4175818;28;19976;-51
2022/02/17 03:37:30;;;;;;;;;;;-0.20;99.90;;;;;;4175189;28;20016;-51
2022/02/17 03:39:33;;;;;;;;;;;-0.20;99.90;;;;;;4177485;28;19925;-51
2022/02/17 03:41:34;;;;;;;;;;;-0.20;99.90;;;;;;4173478;28;20019;-51
2022/02/17 03:43:36;;;;;;;;;;;-0.30;99.90;;;;;;4174471;28;20019;-51
2022/02/17 03:45:38;;;;;;;;;;;-0.30;99.90;;;;;;4176700;28;19929;-50
2022/02/17 03:47:40;;;;;;;;;;;-0.30;99.90;;;;;;4175206;28;20023;-49
2022/02/17 03:49:42;;;;;;;;;;;-0.20;99.90;;;;;;4176752;28;20003;-51
2022/02/17 03:51:44;;;;;;;;;;;-0.10;99.90;;;;;;4177553;28;19951;-52
2022/02/17 03:53:46;;;;;;;;;;;0.00;99.90;;;;;;4173667;28;20358;-51
2022/02/17 03:55:48;;;;;;;;;;;0.00;99.90;;;;;;4177187;28;19970;-51
2022/02/17 03:57:50;;;;;;;;;;;-0.10;99.90;;;;;;4177233;28;20448;-51
2022/02/17 03:59:52;;;;;;;;;;;-0.10;99.90;;;;;;4174742;28;19928;-51
2022/02/17 04:01:54;;;;;;;;;;;-0.10;99.90;;;;;;4177992;28;19925;-51
2022/02/17 04:03:56;;;;;;;;;;;-0.10;99.90;;;;;;4174709;28;19935;-51
2022/02/17 04:05:57;;;;;;;;;;;-0.20;99.90;;;;;;4175515;28;19937;-51
2022/02/17 04:07:59;;;;;;;;;;;-0.20;99.90;;;;;;4177985;28;20437;-51
2022/02/17 04:10:01;;;;;;;;;;;-0.30;99.90;;;;;;4175534;28;19937;-51
2022/02/17 04:12:05;;;;;;;;;;;-0.20;99.90;;;;;;4175345;28;19925;-48
2022/02/17 04:14:07;;;;;;;;;;;-0.20;99.90;;;;;;4164552;28;19972;-51
2022/02/17 04:16:09;;;;;;;;;;;-0.20;99.90;;;;;;4164961;28;20312;-50
2022/02/17 04:18:11;;;;;;;;;;;-0.20;99.90;;;;;;4164869;28;19925;-51
2022/02/17 04:20:13;;;;;;;;;;;-0.20;99.90;;;;;;4175681;28;19952;-51
2022/02/17 04:22:14;;;;;;;;;;;-0.20;99.90;;;;;;4170028;28;20557;-50
2022/02/17 04:24:16;;;;;;;;;;;-0.20;99.90;;;;;;4171567;28;19925;-49
2022/02/17 04:26:19;;;;;;;;;;;-0.30;99.90;;;;;;4163828;28;20296;-50
2022/02/17 04:28:21;;;;;;;;;;;-0.10;99.90;;;;;;4169881;28;19925;-51
2022/02/17 04:30:23;;;;;;;;;;;-0.20;99.90;;;;;;4164423;28;19928;-51
2022/02/17 04:32:25;;;;;;;;;;;-0.20;99.90;;;;;;4171208;28;19928;-51
2022/02/17 04:34:27;;;;;;;;;;;-0.20;99.90;;;;;;4175122;28;19955;-50
2022/02/17 04:36:29;;;;;;;;;;;0.00;99.90;;;;;;4176194;28;20055;-49
2022/02/17 04:38:31;;;;;;;;;;;0.00;99.90;;;;;;4168031;28;20286;-51
2022/02/17 04:43:10;;;;;;;;;;;-0.20;99.90;;;;;;4167558;28;19959;-50
2022/02/17 04:45:12;;;;;;;;;;;-0.20;99.90;;;;;;4159722;28;19933;-48
2022/02/17 04:47:14;;;;;;;;;;;-0.30;99.90;;;;;;4174572;28;20319;-49
2022/02/17 04:49:16;;;;;;;;;;;-0.40;99.90;;;;;;4165118;28;19956;-51
2022/02/17 04:51:18;;;;;;;;;;;-0.50;99.90;;;;;;4167903;28;20019;-51
2022/02/17 04:53:20;;;;;;;;;;;-0.40;99.90;;;;;;4166998;28;19933;-50
2022/02/17 04:55:22;;;;;;;;;;;-0.40;99.90;;;;;;4166531;28;20011;-50
2022/02/17 04:57:24;;;;;;;;;;;-0.40;99.90;;;;;;4170427;28;19925;-51
2022/02/17 04:59:27;;;;;;;;;;;-0.40;99.90;;;;;;4171843;28;20020;-47
2022/02/17 05:01:29;;;;;;;;;;;-0.30;99.90;;;;;;4167650;28;20419;-48
2022/02/17 05:03:31;;;;;;;;;;;-0.20;99.90;;;;;;4173660;28;19975;-50
2022/02/17 05:05:33;;;;;;;;;;;-0.10;99.90;;;;;;4172650;28;20367;-48
2022/02/17 05:07:35;;;;;;;;;;;-0.10;99.90;;;;;;4168320;28;19929;-49
2022/02/17 05:09:37;;;;;;;;;;;-0.10;99.90;;;;;;4175720;28;19971;-48
2022/02/17 05:11:39;;;;;;;;;;;-0.10;99.90;;;;;;4166844;28;19925;-49
2022/02/17 05:13:41;;;;;;;;;;;-0.10;99.90;;;;;;4164260;28;19939;-50
2022/02/17 05:15:43;;;;;;;;;;;-0.10;99.90;;;;;;4175994;28;20468;-50
2022/02/17 05:17:45;;;;;;;;;;;0.00;99.90;;;;;;4170029;28;20367;-49
2022/02/17 05:19:47;;;;;;;;;;;0.00;99.90;;;;;;4172615;28;19943;-51
2022/02/17 05:21:49;;;;;;;;;;;0.00;99.90;;;;;;4175782;28;19926;-49
2022/02/17 05:23:51;;;;;;;;;;;0.00;99.90;;;;;;4172741;28;20016;-51
2022/02/17 05:25:53;;;;;;;;;;;0.00;99.90;;;;;;4172858;28;20377;-49
2022/02/17 05:27:55;;;;;;;;;;;0.00;99.90;;;;;;4178521;28;19931;-51
2022/02/17 05:29:56;;;;;;;;;;;0.00;99.90;;;;;;4175903;28;20369;-51
2022/02/17 05:31:58;;;;;;;;;;;0.10;99.90;;;;;;4179844;28;20031;-51
2022/02/17 05:34:00;;;;;;;;;;;0.10;99.90;;;;;;4178513;28;19936;-48
2022/02/17 05:36:02;;;;;;;;;;;0.10;99.90;;;;;;4177656;28;20472;-50
2022/02/17 05:38:05;;;;;;;;;;;0.00;99.90;;;;;;4180141;28;20094;-50
2022/02/17 05:40:11;;;;;;;;;;;0.10;99.90;;;;;;4178352;28;20337;-51
2022/02/17 05:42:13;;;;;;;;;;;0.00;99.90;;;;;;4177056;28;19935;-51
2022/02/17 05:44:14;;;;;;;;;;;0.00;99.90;;;;;;4179929;28;20011;-50
2022/02/17 05:46:16;;;;;;;;;;;0.00;99.90;;;;;;4177585;28;19925;-52
2022/02/17 05:48:19;;;;;;;;;;;0.00;99.90;;;;;;4177886;28;19925;-51
2022/02/17 05:50:21;;;;;;;;;;;0.00;99.90;;;;;;4179533;28;19925;-50
2022/02/17 05:52:23;;;;;;;;;;;0.00;99.90;;;;;;4172607;28;20323;-52
2022/02/17 05:54:25;;;;;;;;;;;0.00;99.90;;;;;;4167182;28;19931;-52
2022/02/17 05:56:27;;;;;;;;;;;0.00;99.90;;;;;;4180405;28;19931;-50
2022/02/17 05:58:29;;;;;;;;;;;0.10;99.90;;;;;;4177743;28;19925;-52
2022/02/17 06:00:31;;;;;;;;;;;0.10;99.90;;;;;;4176258;28;19928;-52
2022/02/17 06:02:33;;;;;;;;;;;0.10;99.90;;;;;;4164341;28;20414;-52
2022/02/17 06:04:34;;;;;;;;;;;0.00;99.90;;;;;;4173412;28;19939;-51
2022/02/17 06:06:36;;;;;;;;;;;0.00;99.90;;;;;;4178465;28;20401;-52
2022/02/17 06:08:38;;;;;;;;;;;0.00;99.90;;;;;;4164676;28;19991;-52
2022/02/17 06:10:43;;;;;;;;;;;0.00;99.90;;;;;;4175022;28;20053;-48
2022/02/17 06:12:46;;;;;;;;;;;0.10;99.90;;;;;;4176918;28;20389;-50
2022/02/17 06:14:47;;;;;;;;;;;0.10;99.90;;;;;;4165315;28;19932;-52
2022/02/17 06:16:49;;;;;;;;;;;0.20;99.90;;;;;;4174419;28;20304;-51
2022/02/17 06:18:51;;;;;;;;;;;0.20;99.90;;;;;;4176040;28;19929;-50
2022/02/17 06:20:53;;;;;;;;;;;0.20;99.90;;;;;;4176139;28;19939;-51
2022/02/17 06:22:55;;;;;;;;;;;0.20;99.90;;;;;;4173426;28;19972;-52
2022/02/17 06:24:57;;;;;;;;;;;0.30;99.90;;;;;;4164934;28;19964;-51
2022/02/17 06:26:59;;;;;;;;;;;0.30;99.90;;;;;;4178291;28;20027;-52
2022/02/17 06:29:01;;;;;;;;;;;0.40;99.90;;;;;;4172054;28;20295;-52
2022/02/17 06:31:03;;;;;;;;;;;0.40;99.90;;;;;;4164563;28;19929;-52
2022/02/17 06:33:07;;;;;;;;;;;0.40;99.90;;;;;;4174528;28;20463;-53
2022/02/17 06:35:08;;;;;;;;;;;0.50;99.90;;;;;;4175249;28;19943;-52
2022/02/17 06:37:10;;;;;;;;;;;0.50;99.90;;;;;;4162621;28;20115;-53
2022/02/17 06:39:13;;;;;;;;;;;0.50;99.90;;;;;;4170608;28;19984;-52
2022/02/17 06:41:17;;;;;;;;;;;0.50;99.90;;;;;;4184589;28;20011;-52
2022/02/17 06:43:19;;;;;;;;;;;0.50;99.90;;;;;;4173940;28;20375;-53
2022/02/17 06:45:21;;;;;;;;;;;0.50;99.90;;;;;;4172229;28;19928;-52
2022/02/17 06:47:23;;;;;;;;;;;0.50;99.90;;;;;;4168358;28;20027;-53
2022/02/17 06:49:25;;;;;;;;;;;0.60;99.90;;;;;;4177709;28;19991;-53
2022/02/17 06:51:27;;;;;;;;;;;0.50;99.90;;;;;;4172920;28;20017;-53
2022/02/17 06:53:29;;;;;;;;;;;0.60;99.90;;;;;;4167249;28;20257;-53
2022/02/17 06:55:31;;;;;;;;;;;0.50;99.90;;;;;;4172077;28;20360;-52
2022/02/17 06:57:33;;;;;;;;;;;0.60;99.90;;;;;;4175991;28;20027;-52
2022/02/17 06:59:35;;;;;;;;;;;0.60;99.90;;;;;;4176240;28;19967;-52
2022/02/17 07:01:38;;;;;;;;;;;0.60;99.90;;;;;;4174345;28;19987;-53
2022/02/17 07:03:40;;;;;;;;;;;0.70;99.90;;;;;;4171616;28;19935;-52
2022/02/17 07:05:42;;;;;;;;;;;0.80;99.90;;;;;;4172900;28;19935;-54
2022/02/17 07:07:44;;;;;;;;;;;0.80;99.90;;;;;;4170175;28;19924;-52
2022/02/17 07:09:46;;;;;;;;;;;0.80;99.90;;;;;;4171723;28;19925;-52
2022/02/17 07:11:48;;;;;;;;;;;0.90;99.90;;;;;;4175105;28;19925;-53
2022/02/17 07:13:50;;;;;;;;;;;0.90;99.90;;;;;;4164708;28;20697;-52
2022/02/17 07:15:53;;;;;;;;;;;1.00;99.90;;;;;;4176489;28;19971;-53
2022/02/17 07:17:57;;;;;;;;;;;1.10;99.90;;;;;;4173397;28;19940;-52
2022/02/17 07:19:59;;;;;;;;;;;1.20;99.90;;;;;;4164364;28;20047;-52
2022/02/17 07:22:01;;;;;;;;;;;1.30;99.90;;;;;;4170862;28;19929;-53
2022/02/17 07:24:03;;;;;;;;;;;1.30;99.90;;;;;;4174691;28;20031;-52
2022/02/17 07:26:05;;;;;;;;;;;1.40;99.90;;;;;;4178110;28;20388;-52
2022/02/17 07:28:07;;;;;;;;;;;1.50;99.90;;;;;;4173977;28;19979;-52
2022/02/17 07:30:09;;;;;;;;;;;1.50;99.90;;;;;;4176699;28;20396;-53
2022/02/17 07:32:11;;;;;;;;;;;1.50;99.90;;;;;;4176250;28;19983;-52
2022/02/17 07:34:13;;;;;;;;;;;1.50;99.90;;;;;;4175265;28;19967;-53
2022/02/17 07:36:16;;;;;;;;;;;1.60;99.90;;;;;;4177623;28;19925;-53
2022/02/17 07:38:23;;;;;;;;;;;1.60;99.90;;;;;;4176057;28;19968;-53
2022/02/17 07:40:25;;;;;;;;;;;1.60;99.90;;;;;;4174184;28;19967;-53
2022/02/17 07:42:27;;;;;;;;;;;1.70;99.90;;;;;;4177839;28;19929;-53
2022/02/17 07:44:28;;;;;;;;;;;1.70;99.90;;;;;;4177307;28;19925;-53
2022/02/17 07:46:31;;;;;;;;;;;1.60;99.90;;;;;;4175508;28;19925;-53
2022/02/17 07:48:33;;;;;;;;;;;1.70;99.90;;;;;;4177384;28;19929;-52
2022/02/17 07:50:35;;;;;;;;;;;1.80;99.90;;;;;;4176553;28;20228;-53
2022/02/17 07:52:37;;;;;;;;;;;1.90;99.90;;;;;;4174208;28;19962;-53
2022/02/17 07:54:40;;;;;;;;;;;2.00;99.90;;;;;;4177381;28;20406;-53
2022/02/17 07:56:42;;;;;;;;;;;2.00;99.90;;;;;;4170472;28;19948;-52
2022/02/17 07:58:44;;;;;;;;;;;2.10;99.90;;;;;;4166532;28;20020;-52
2022/02/17 08:00:46;;;;;;;;;;;2.20;99.90;;;;;;4161967;28;19948;-53
2022/02/17 08:02:48;;;;;;;;;;;2.30;99.90;;;;;;4173827;28;19928;-53
2022/02/17 08:04:51;;;;;;;;;;;2.40;99.90;;;;;;4176179;28;19933;-53
2022/02/17 08:06:53;;;;;;;;;;;2.50;99.90;;;;;;4163369;28;19964;-53
2022/02/17 08:08:55;;;;;;;;;;;2.60;99.90;;;;;;4174814;28;20403;-54
2022/02/17 08:10:57;;;;;;;;;;;2.70;99.90;;;;;;4174598;28;19925;-53
2022/02/17 08:13:03;;;;;;;;;;;2.80;99.90;;;;;;4177856;28;19936;-52
2022/02/17 08:15:05;;;;;;;;;;;2.70;99.90;;;;;;4172771;28;20019;-53
2022/02/17 08:17:07;;;;;;;;;;;2.80;99.90;;;;;;4165016;28;20090;-52
2022/02/17 08:19:09;;;;;;;;;;;2.90;99.90;;;;;;4175888;28;19971;-52
2022/02/17 08:21:16;;;;;;;;;;;3.00;99.90;;;;;;4171128;28;19925;-54
2022/02/17 08:23:19;;;;;;;;;;;3.10;99.90;;;;;;4166635;28;20016;-53
2022/02/17 08:25:21;;;;;;;;;;;3.00;99.90;;;;;;4168745;28;19932;-53
2022/02/17 08:27:23;;;;;;;;;;;3.10;99.90;;;;;;4172997;28;20392;-52
2022/02/17 08:29:26;;;;;;;;;;;3.10;99.90;;;;;;4164758;28;19924;-53
2022/02/17 08:31:28;;;;;;;;;;;3.10;99.90;;;;;;4167969;28;19925;-53
2022/02/17 08:33:30;;;;;;;;;;;3.10;99.90;;;;;;4174261;28;19964;-53
2022/02/17 08:35:32;;;;;;;;;;;3.10;99.90;;;;;;4162974;28;20452;-52
2022/02/17 08:37:39;;;;;;;;;;;3.10;99.90;;;;;;4177107;28;20308;-53
2022/02/17 08:39:41;;;;;;;;;;;3.20;99.90;;;;;;4174689;28;19928;-53
2022/02/17 08:41:42;;;;;;;;;;;3.30;99.90;;;;;;4166180;28;20639;-53
2022/02/17 08:43:44;;;;;;;;;;;3.40;99.90;;;;;;4170659;28;19931;-53
2022/02/17 08:45:46;;;;;;;;;;;3.40;99.90;;;;;;4172191;28;19925;-52
2022/02/17 08:47:48;;;;;;;;;;;3.40;99.90;;;;;;4175641;28;19960;-52
2022/02/17 08:49:50;;;;;;;;;;;3.40;99.90;;;;;;4163480;28;20020;-53
2022/02/17 08:51:52;;;;;;;;;;;3.40;99.90;;;;;;4171784;28;20345;-52
2022/02/17 08:53:54;;;;;;;;;;;3.40;99.90;;;;;;4161862;28;19971;-53
2022/02/17 08:55:55;;;;;;;;;;;3.50;99.90;;;;;;4164343;28;19929;-52
2022/02/17 08:57:57;;;;;;;;;;;3.70;99.90;;;;;;4174488;28;20019;-53
2022/02/17 08:59:59;;;;;;;;;;;3.90;99.90;;;;;;4170616;28;19947;-53
2022/02/17 09:02:03;;;;;;;;;;;4.00;99.90;;;;;;4163215;28;19939;-53
2022/02/17 09:04:05;;;;;;;;;;;4.10;99.90;;;;;;4173483;28;19960;-52
2022/02/17 09:06:07;;;;;;;;;;;4.20;99.90;;;;;;4173610;28;19925;-52
2022/02/17 09:08:20;;;;;;;;;;;4.30;99.90;;;;;;4176756;28;19932;-53
2022/02/17 09:10:22;;;;;;;;;;;4.40;99.90;;;;;;4169305;28;19935;-53
2022/02/17 09:12:31;;;;;;;;;;;4.50;99.90;;;;;;4173285;28;19928;-54
2022/02/17 09:14:33;;;;;;;;;;;4.60;99.90;;;;;;4176534;28;20023;-53
2022/02/17 09:16:35;;;;;;;;;;;4.70;99.90;;;;;;4174073;28;19929;-52
2022/02/17 09:18:37;;;;;;;;;;;4.80;99.90;;;;;;4174143;28;19932;-53
2022/02/17 09:20:39;;;;;;;;;;;4.90;99.90;;;;;;4175861;28;19999;-53
2022/02/17 09:22:42;;;;;;;;;;;5.00;99.90;;;;;;4174471;28;20035;-53
2022/02/17 09:24:44;;;;;;;;;;;5.00;99.90;;;;;;4175206;28;20035;-53
2022/02/17 09:26:46;;;;;;;;;;;5.10;99.90;;;;;;4165318;28;19925;-53
2022/02/17 09:28:48;;;;;;;;;;;5.10;99.90;;;;;;4165325;28;20011;-53
2022/02/17 09:31:13;;;;;;;;;;;5.20;99.90;;;;;;4162026;28;19929;-52
2022/02/17 09:33:14;;;;;;;;;;;5.40;99.90;;;;;;4176329;28;20431;-53
2022/02/17 09:35:16;;;;;;;;;;;5.50;99.90;;;;;;4173739;28;19960;-53
2022/02/17 09:37:18;;;;;;;;;;;5.60;99.90;;;;;;4165278;28;19932;-52
2022/02/17 09:39:21;;;;;;;;;;;5.60;99.90;;;;;;4176402;28;19932;-53
2022/02/17 09:41:23;;;;;;;;;;;5.90;99.90;;;;;;4172838;28;19935;-53
2022/02/17 09:43:25;;;;;;;;;;;6.10;99.90;;;;;;4175707;28;19931;-52
2022/02/17 09:45:28;;;;;;;;;;;6.20;99.90;;;;;;4174752;28;20591;-52
2022/02/17 09:47:30;;;;;;;;;;;6.50;99.90;;;;;;4170423;28;20362;-53
2022/02/17 09:49:33;;;;;;;;;;;6.80;99.90;;;;;;4175779;28;19960;-52
2022/02/17 09:51:35;;;;;;;;;;;6.90;99.90;;;;;;4172872;28;20008;-54
2022/02/17 09:53:37;;;;;;;;;;;7.00;99.90;;;;;;4165321;28;20305;-53
2022/02/17 09:55:40;;;;;;;;;;;7.00;99.90;;;;;;4160673;28;19929;-53
2022/02/17 09:57:42;;;;;;;;;;;7.20;99.90;;;;;;4172598;28;19970;-53
2022/02/17 09:59:45;;;;;;;;;;;7.10;99.90;;;;;;4162411;28;19936;-53
2022/02/17 10:01:54;;;;;;;;;;;6.80;99.90;;;;;;4165868;28;20655;-54
2022/02/17 10:04:15;;;;;;;;;;;7.10;99.90;;;;;;4167399;28;19960;-53
2022/02/17 10:06:17;;;;;;;;;;;6.80;99.90;;;;;;4164147;28;20625;-53
2022/02/17 10:08:21;;;;;;;;;;;7.20;99.90;;;;;;4171586;28;20020;-53
2022/02/17 10:10:25;;;;;;;;;;;7.40;99.90;;;;;;4171313;28;20373;-53
2022/02/17 10:12:47;;;;;;;;;;;7.60;99.90;;;;;;4169785;28;19929;-51
2022/02/17 10:14:59;;;;;;;;;;;7.50;99.90;;;;;;4165969;28;19933;-53
2022/02/17 10:17:03;;;;;;;;;;;7.70;99.90;;;;;;4168332;28;19929;-53
2022/02/17 10:19:10;;;;;;;;;;;8.00;99.90;;;;;;4168831;28;20051;-53
2022/02/17 10:21:15;;;;;;;;;;;7.70;99.90;;;;;;4165350;28;19929;-52
2022/02/17 10:23:17;;;;;;;;;;;7.80;99.90;;;;;;4171750;28;20615;-54
2022/02/17 10:25:20;;;;;;;;;;;7.70;99.90;;;;;;4168047;28;19961;-53
2022/02/17 10:27:23;;;;;;;;;;;7.80;99.90;;;;;;4172249;28;20337;-53
2022/02/17 10:29:26;;;;;;;;;;;8.00;99.90;;;;;;4166047;28;20558;-53
2022/02/17 10:31:32;;;;;;;;;;;8.40;99.90;;;;;;4172887;28;19935;-53
2022/02/17 10:33:41;;;;;;;;;;;8.40;99.90;;;;;;4161922;28;20274;-53
2022/02/17 10:35:51;;;;;;;;;;;8.30;99.90;;;;;;4165996;28;19929;-53
2022/02/17 10:37:55;;;;;;;;;;;8.60;99.90;;;;;;4170029;28;20312;-53
2022/02/17 10:40:00;;;;;;;;;;;8.40;99.90;;;;;;4173885;28;19975;-53
2022/02/17 10:42:04;;;;;;;;;;;8.60;99.90;;;;;;4173020;28;20015;-52
2022/02/17 10:44:06;;;;;;;;;;;8.80;99.90;;;;;;4165347;28;19972;-52
2022/02/17 10:46:10;;;;;;;;;;;9.00;99.90;;;;;;4169585;28;19929;-54
2022/02/17 10:48:12;;;;;;;;;;;9.30;99.90;;;;;;4172491;28;19995;-53
2022/02/17 10:50:18;;;;;;;;;;;9.50;99.90;;;;;;4169526;28;19932;-54
2022/02/17 10:52:27;;;;;;;;;;;9.60;99.90;;;;;;4163947;28;19933;-53
2022/02/17 10:54:29;;;;;;;;;;;9.90;99.90;;;;;;4166564;28;20336;-53
2022/02/17 10:56:31;;;;;;;;;;;9.80;99.90;;;;;;4162317;28;19971;-53
2022/02/17 10:58:43;;;;;;;;;;;9.80;99.90;;;;;;4157010;28;19932;-54
2022/02/17 11:00:45;;;;;;;;;;;9.60;99.90;;;;;;4168825;28;19929;-54
2022/02/17 11:02:49;;;;;;;;;;;9.70;99.90;;;;;;4166925;28;19929;-54
2022/02/17 11:04:51;;;;;;;;;;;9.90;99.90;;;;;;4163510;28;20027;-53
2022/02/17 11:06:53;;;;;;;;;;;10.10;99.90;;;;;;4172716;28;19929;-53
2022/02/17 11:08:55;;;;;;;;;;;10.00;99.90;;;;;;4175626;28;20340;-53
2022/02/17 11:10:58;;;;;;;;;;;10.10;99.90;;;;;;4168740;28;19926;-54
2022/02/17 11:13:01;;;;;;;;;;;10.10;99.90;;;;;;4173278;28;19991;-53
2022/02/17 11:15:05;;;;;;;;;;;10.30;99.90;;;;;;4163404;28;20365;-53
2022/02/17 11:17:09;;;;;;;;;;;10.60;99.90;;;;;;4174987;28;20282;-53
2022/02/17 11:19:24;;;;;;;;;;;10.80;99.90;;;;;;4166486;28;19947;-53
2022/02/17 11:21:26;;;;;;;;;;;10.60;99.90;;;;;;4167125;28;20830;-54
2022/02/17 11:23:30;;;;;;;;;;;10.90;99.90;;;;;;4166208;28;19929;-53
2022/02/17 11:25:36;;;;;;;;;;;11.00;99.90;;;;;;4165818;28;20413;-54
2022/02/17 11:27:56;;;;;;;;;;;11.40;99.90;;;;;;4165178;28;20383;-54
2022/02/17 11:30:23;;;;;;;;;;;11.40;99.90;;;;;;4163154;28;20031;-54
2022/02/17 11:32:26;;;;;;;;;;;11.30;99.90;;;;;;4165620;28;20308;-53
2022/02/17 11:34:36;;;;;;;;;;;11.20;99.90;;;;;;4164272;28;20023;-53
2022/02/17 11:36:38;;;;;;;;;;;11.30;99.90;;;;;;4166071;28;20393;-53
2022/02/17 11:38:40;;;;;;;;;;;11.20;99.90;;;;;;4168706;28;19948;-54
2022/02/17 11:41:05;;;;;;;;;;;11.50;99.90;;;;;;4168133;28;19925;-54
2022/02/17 11:43:08;;;;;;;;;;;11.30;99.90;;;;;;4174713;28;20592;-53
2022/02/17 11:45:11;;;;;;;;;;;11.10;99.90;;;;;;4168016;28;19960;-54
2022/02/17 11:47:13;;;;;;;;;;;11.80;99.90;;;;;;4165333;28;19925;-53
2022/02/17 11:49:42;;;;;;;;;;;11.50;99.90;;;;;;4171343;28;19939;-53
2022/02/17 11:52:04;;;;;;;;;;;11.90;99.90;;;;;;4170332;28;19957;-54
2022/02/17 11:54:16;;;;;;;;;;;11.70;99.90;;;;;;4169315;28;20305;-54
2022/02/17 11:56:18;;;;;;;;;;;11.30;99.90;;;;;;4164404;28;20435;-53
2022/02/17 11:58:39;;;;;;;;;;;11.60;99.90;;;;;;4173256;28;20015;-54
2022/02/17 12:00:41;;;;;;;;;;;11.60;99.90;;;;;;4170969;28;20295;-54
2022/02/17 12:02:43;;;;;;;;;;;11.60;99.90;;;;;;4165278;28;19925;-54
2022/02/17 12:04:45;;;;;;;;;;;11.90;99.90;;;;;;4171347;28;20399;-54
2022/02/17 12:06:51;;;;;;;;;;;11.80;99.90;;;;;;4171235;28;19975;-53